createdAt,value
2022-12-31T00:04:51.142Z,4.10
2022-12-31T00:09:59.764Z,4.10
2022-12-31T00:15:07.745Z,4.20
2022-12-31T00:20:16.486Z,4.20
2022-12-31T00:25:24.758Z,4.10
2022-12-31T00:30:33.455Z,3.90
2022-12-31T00:35:41.522Z,3.80
2022-12-31T00:40:49.908Z,3.70
2022-12-31T00:45:58.257Z,3.70
2022-12-31T00:51:06.683Z,3.60
2022-12-31T00:56:15.150Z,3.50
2022-12-31T01:01:23.850Z,3.50
2022-12-31T01:06:31.905Z,3.40
2022-12-31T01:11:40.297Z,3.40
2022-12-31T01:16:48.746Z,3.30
2022-12-31T01:21:57.569Z,3.30
2022-12-31T01:27:05.913Z,3.20
2022-12-31T01:32:14.857Z,3.10
2022-12-31T01:37:22.895Z,3.00
2022-12-31T01:42:31.431Z,2.90
2022-12-31T01:47:39.912Z,2.90
2022-12-31T01:52:48.355Z,2.90
2022-12-31T01:57:56.714Z,2.90
2022-12-31T02:03:05.143Z,3.00
2022-12-31T02:08:13.248Z,3.00
2022-12-31T02:13:21.911Z,2.90
2022-12-31T02:18:30.142Z,2.90
2022-12-31T02:23:38.703Z,2.90
2022-12-31T02:28:47.081Z,2.90
2022-12-31T02:33:55.305Z,3.10
2022-12-31T02:39:03.963Z,3.30
2022-12-31T02:44:12.744Z,3.40
2022-12-31T02:49:20.959Z,3.50
2022-12-31T02:54:29.726Z,3.60
2022-12-31T02:59:38.042Z,3.60
2022-12-31T03:04:46.922Z,3.60
2022-12-31T03:09:55.226Z,3.60
2022-12-31T03:15:03.803Z,3.50
2022-12-31T03:20:12.055Z,3.50
2022-12-31T03:25:21.122Z,3.40
2022-12-31T03:30:29.500Z,3.50
2022-12-31T03:35:37.977Z,3.50
2022-12-31T03:40:46.340Z,3.60
2022-12-31T03:45:55.179Z,3.50
2022-12-31T03:51:03.561Z,3.50
2022-12-31T03:56:12.067Z,3.60
2022-12-31T04:01:20.472Z,3.60
2022-12-31T04:06:29.436Z,3.60
2022-12-31T04:11:37.828Z,3.60
2022-12-31T04:16:46.518Z,3.60
2022-12-31T04:21:54.888Z,3.70
2022-12-31T04:27:07.487Z,3.80
2022-12-31T04:32:11.613Z,3.80
2022-12-31T04:37:20.373Z,3.70
2022-12-31T04:42:28.818Z,3.80
2022-12-31T04:47:37.680Z,3.70
2022-12-31T04:52:46.040Z,3.80
2022-12-31T04:57:54.538Z,3.80
2022-12-31T05:03:03.039Z,3.80
2022-12-31T05:08:11.808Z,3.80
2022-12-31T05:13:20.266Z,3.90
2022-12-31T05:18:28.782Z,3.90
2022-12-31T05:23:36.987Z,3.90
2022-12-31T05:28:45.362Z,4.00
2022-12-31T05:33:53.814Z,4.10
2022-12-31T05:39:02.709Z,4.10
2022-12-31T05:44:11.136Z,4.10
2022-12-31T05:49:19.820Z,4.00
2022-12-31T05:54:28.085Z,4.00
2022-12-31T05:59:36.910Z,3.90
2022-12-31T06:04:45.463Z,3.90
2022-12-31T06:09:54.051Z,3.90
2022-12-31T06:15:02.552Z,4.00
2022-12-31T06:20:13.344Z,4.00
2022-12-31T06:25:19.789Z,3.90
2022-12-31T06:30:28.247Z,3.90
2022-12-31T06:35:36.767Z,4.00
2022-12-31T06:40:45.725Z,4.00
2022-12-31T06:45:54.342Z,4.10
2022-12-31T06:51:03.155Z,4.10
2022-12-31T06:56:11.997Z,4.20
2022-12-31T07:01:21.565Z,4.20
2022-12-31T07:06:30.024Z,4.20
2022-12-31T07:11:38.879Z,4.30
2022-12-31T07:16:47.865Z,4.30
2022-12-31T07:21:56.405Z,4.30
2022-12-31T07:27:04.815Z,4.40
2022-12-31T07:32:13.961Z,4.50
2022-12-31T07:37:22.657Z,4.60
2022-12-31T07:42:31.705Z,4.70
2022-12-31T07:47:40.138Z,4.60
2022-12-31T07:52:49.435Z,4.60
2022-12-31T07:57:57.944Z,4.70
2022-12-31T08:03:06.627Z,4.70
2022-12-31T08:08:15.419Z,4.60
2022-12-31T08:13:24.675Z,4.60
2022-12-31T08:18:33.054Z,4.60
2022-12-31T08:23:41.741Z,4.60
2022-12-31T08:28:50.843Z,4.50
2022-12-31T08:34:03.834Z,4.60
2022-12-31T08:39:07.523Z,4.70
2022-12-31T08:44:16.719Z,4.80
2022-12-31T08:49:25.434Z,4.80
2022-12-31T08:54:34.162Z,4.80
2022-12-31T08:59:42.669Z,4.80
2022-12-31T09:04:51.283Z,4.80
2022-12-31T09:09:59.813Z,4.80
2022-12-31T09:15:08.713Z,4.80
2022-12-31T09:20:17.314Z,4.90
2022-12-31T09:25:26.067Z,5.00
2022-12-31T09:30:34.816Z,5.20
2022-12-31T09:35:43.189Z,5.20
2022-12-31T09:40:51.932Z,5.40
2022-12-31T09:46:00.685Z,5.40
2022-12-31T09:51:09.083Z,5.50
2022-12-31T09:56:18.134Z,5.50
2022-12-31T10:01:27.030Z,5.50
2022-12-31T10:06:35.568Z,5.50
2022-12-31T10:11:43.854Z,5.60
2022-12-31T10:16:52.639Z,5.60
2022-12-31T10:22:01.098Z,5.70
2022-12-31T10:27:10.091Z,5.80
2022-12-31T10:32:18.767Z,5.80
2022-12-31T10:37:27.831Z,5.80
2022-12-31T10:42:36.369Z,5.70
2022-12-31T10:47:45.621Z,5.80
2022-12-31T10:52:53.790Z,5.70
2022-12-31T10:58:04.464Z,5.70
2022-12-31T11:03:10.788Z,5.70
2022-12-31T11:08:19.967Z,5.60
2022-12-31T11:13:28.698Z,5.50
2022-12-31T11:18:37.830Z,5.50
2022-12-31T11:23:46.447Z,5.40
2022-12-31T11:28:55.246Z,5.40
2022-12-31T11:34:03.780Z,5.40
2022-12-31T11:39:12.685Z,5.40
2022-12-31T11:44:21.313Z,5.50
2022-12-31T11:49:30.179Z,5.60
2022-12-31T11:54:38.642Z,5.70
2022-12-31T11:59:47.205Z,5.70
2022-12-31T12:04:55.892Z,5.70
2022-12-31T12:10:04.751Z,5.70
2022-12-31T12:15:13.300Z,5.60
2022-12-31T12:20:22.238Z,5.60
2022-12-31T12:25:31.189Z,5.50
2022-12-31T12:30:40.638Z,5.50
2022-12-31T12:35:48.979Z,5.40
2022-12-31T12:40:57.696Z,5.40
2022-12-31T12:46:05.995Z,5.30
2022-12-31T12:51:14.902Z,5.30
2022-12-31T12:56:23.251Z,5.20
2022-12-31T13:01:32.216Z,5.20
2022-12-31T13:06:40.648Z,5.10
2022-12-31T13:11:49.226Z,5.10
2022-12-31T13:16:57.924Z,5.10
2022-12-31T13:22:06.651Z,5.00
2022-12-31T13:27:14.690Z,5.00
2022-12-31T13:32:23.551Z,4.90
2022-12-31T13:37:32.086Z,4.90
2022-12-31T13:42:40.868Z,4.80
2022-12-31T13:47:49.287Z,4.80
2022-12-31T13:52:57.786Z,4.70
2022-12-31T13:58:06.307Z,4.70
2022-12-31T14:03:15.206Z,4.70
2022-12-31T14:08:23.482Z,4.70
2022-12-31T14:13:34.777Z,4.70
2022-12-31T14:18:41.060Z,4.60
2022-12-31T14:23:50.074Z,4.60
2022-12-31T14:28:58.572Z,4.60
2022-12-31T14:34:07.271Z,4.60
2022-12-31T14:39:15.843Z,4.60
2022-12-31T14:44:24.447Z,4.60
2022-12-31T14:49:33.048Z,4.60
2022-12-31T14:54:42.309Z,4.60
2022-12-31T14:59:50.962Z,4.60
2022-12-31T15:04:59.762Z,4.60
2022-12-31T15:10:08.402Z,4.60
2022-12-31T15:15:17.322Z,4.60
2022-12-31T15:20:25.756Z,4.50
2022-12-31T15:25:40.467Z,4.50
2022-12-31T15:30:42.658Z,4.50
2022-12-31T15:35:51.945Z,4.40
2022-12-31T15:41:00.109Z,4.50
2022-12-31T15:46:09.487Z,4.40
2022-12-31T15:51:18.040Z,4.40
2022-12-31T15:56:26.865Z,4.40
2022-12-31T16:01:35.182Z,4.40
2022-12-31T16:06:48.928Z,4.50
2022-12-31T16:11:51.385Z,4.50
2022-12-31T16:17:00.654Z,4.60
2022-12-31T16:22:09.344Z,4.70
2022-12-31T16:27:18.935Z,4.80
2022-12-31T16:32:27.674Z,4.80
2022-12-31T16:37:36.473Z,4.80
2022-12-31T16:42:44.875Z,4.70
2022-12-31T16:47:54.215Z,4.70
2022-12-31T16:53:03.107Z,4.70
2022-12-31T16:58:12.092Z,4.70
2022-12-31T17:03:20.785Z,4.70
2022-12-31T17:08:29.651Z,4.70
2022-12-31T17:13:38.560Z,4.80
2022-12-31T17:18:47.593Z,4.80
2022-12-31T17:23:56.029Z,4.90
2022-12-31T17:29:08.177Z,4.90
2022-12-31T17:34:06.082Z,4.90
2022-12-31T17:39:14.685Z,4.90
2022-12-31T17:44:23.027Z,4.90
2022-12-31T17:49:31.604Z,4.90
2022-12-31T17:54:40.264Z,5.00
2022-12-31T17:59:48.930Z,4.90
2022-12-31T18:04:57.372Z,5.00
2022-12-31T18:10:06.268Z,5.00
2022-12-31T18:15:14.455Z,5.00
2022-12-31T18:20:23.048Z,5.00
2022-12-31T18:25:31.464Z,5.00
2022-12-31T18:30:40.595Z,5.00
2022-12-31T18:36:08.137Z,5.00
2022-12-31T18:40:57.124Z,5.10
2022-12-31T18:46:06.565Z,5.10
2022-12-31T18:51:15.222Z,5.10
2022-12-31T18:56:23.774Z,5.10
2022-12-31T19:01:33.198Z,5.30
2022-12-31T19:06:41.198Z,5.30
2022-12-31T19:11:49.915Z,5.30
2022-12-31T19:16:58.509Z,5.30
2022-12-31T19:22:06.974Z,5.40
2022-12-31T19:27:14.822Z,5.40
2022-12-31T19:32:23.631Z,5.40
2022-12-31T19:37:32.377Z,5.40
2022-12-31T19:42:41.046Z,5.40
2022-12-31T19:47:49.913Z,5.50
2022-12-31T19:52:59.039Z,5.50
2022-12-31T19:58:07.546Z,5.60
2022-12-31T20:03:16.707Z,5.60
2022-12-31T20:08:25.134Z,5.60
2022-12-31T20:13:34.213Z,5.60
2022-12-31T20:18:42.655Z,5.70
2022-12-31T20:23:51.650Z,5.70
2022-12-31T20:29:00.131Z,5.70
2022-12-31T20:34:08.920Z,5.60
2022-12-31T20:39:17.222Z,5.60
2022-12-31T20:44:26.553Z,5.60
2022-12-31T20:50:00.595Z,5.70
2022-12-31T20:54:44.158Z,5.70
2022-12-31T20:59:53.141Z,5.70
2022-12-31T21:05:01.936Z,5.70
2022-12-31T21:10:10.178Z,5.70
2022-12-31T21:15:19.353Z,5.60
2022-12-31T21:20:27.967Z,5.60
2022-12-31T21:25:36.795Z,5.70
2022-12-31T21:30:45.043Z,5.70
2022-12-31T21:35:54.223Z,5.70
2022-12-31T21:41:01.356Z,5.70
2022-12-31T21:46:10.528Z,5.70
2022-12-31T21:51:18.843Z,5.70
2022-12-31T21:56:27.887Z,5.80
2022-12-31T22:01:36.699Z,5.80
2022-12-31T22:06:45.565Z,5.80
2022-12-31T22:11:54.422Z,5.80
2022-12-31T22:17:02.890Z,5.80
2022-12-31T22:22:11.793Z,5.80
2022-12-31T22:27:29.410Z,5.80
2022-12-31T22:32:28.800Z,5.90
2022-12-31T22:37:57.075Z,5.80
2022-12-31T22:42:45.483Z,5.80
2022-12-31T22:47:54.325Z,5.90
2022-12-31T22:53:02.954Z,5.90
2022-12-31T22:58:11.563Z,5.90
2022-12-31T23:03:20.094Z,6.00
2022-12-31T23:08:28.847Z,6.00
2022-12-31T23:13:37.389Z,6.00
2022-12-31T23:18:45.969Z,6.00
2022-12-31T23:23:54.394Z,6.10
2022-12-31T23:29:03.046Z,6.10
2022-12-31T23:34:11.298Z,6.00
2022-12-31T23:39:20.463Z,6.00
2022-12-31T23:44:29.115Z,6.00
2022-12-31T23:49:37.897Z,6.10
2022-12-31T23:54:46.236Z,6.10
2022-12-31T23:59:55.225Z,6.10
